Pagrindinis puslapis
METAR-TAF:

METAR-TAF

Oro uostai :

Antofagasta, Čilė

platuma: 23-26S, ilguma: 070-26W, Aukštis: 135 m

Dabartinis oras

Ataskaita buvo paskelbta 1 valandą ir 6 minutes, ne 12:00 UTC
Vėjas 6 kt iš Pietų/Pietryčių
Temperatūra 11°C
Drėgmė 82%
Slėgis 1019 hPa
Matomumas 10 km arba daugiau
Mažai debesys ne aukštis 900 ft

METAR: SCFA 241200Z 16006KT 9999 FEW009 11/08 Q1019 NOSIG

Laikas: 09:06 (13:06 UTC)

Prognozė

Ataskaita buvo paskelbta 2 valandos ir 19 minutes, ne 10:47 UTC
Prognozė galioja nuo 24 metu 12 UTC su 25 metu 12 UTC
Vėjas 10 kt iš Pietų/Pietvakarių
Matomumas 10 km arba daugiau
Su prošvaistėmis ne aukštis 1000 ft
Tapsmas
nuo 24 metu 13 UTC su 24 metu 15 UTC
Mažai debesys ne aukštis 2000 ft
Tapsmas
nuo 24 metu 16 UTC su 24 metu 18 UTC
Vėjas 18 kt iš Pietų/Pietvakarių
Tapsmas
nuo 25 metu 00 UTC su 25 metu 02 UTC
Vėjas 8 kt iš Pietų/Pietvakarių
Apsiniaukę ne aukštis 2000 ft

TAF: SCFA 241047Z 2412/2512 21010KT 9999 BKN010 TX16/2418Z TN12/2510Z BECMG 2413/2415 FEW020 BECMG 2416/2418 20018KT BECMG 2500/2502 20008KT OVC020

Orai ataskaitas ir orų prognozės (METAR, TAF).

turimą stotys yra geltonos ir raudonos taškus žemėlapyje.

Perkelti pele per norėdami pamatyti stoties vardą.

Tada spustelėkite, norėdami matyti oro stebėjimo ir prognozės.

Norėdami pakeisti žemėlapį: spustelėkite ant žalios mygtukų su juodo kryžiaus žemyn,; žalią mygtuką su brūkšneliu, jei norite nutolinti; arba žalių rodyklių gretimoms žemėlapius.


METAR-TAF: